createdAt,value
2018-04-27T00:00:23.048Z,47.89
2018-04-27T00:02:55.960Z,48.32
2018-04-27T00:05:30.266Z,48.78
2018-04-27T00:08:04.826Z,48.65
2018-04-27T00:10:38.388Z,47.79
2018-04-27T00:13:11.601Z,47.26
2018-04-27T00:15:45.100Z,47.17
2018-04-27T00:18:19.025Z,48.43
2018-04-27T00:20:54.084Z,47.93
2018-04-27T00:23:27.234Z,48.29
2018-04-27T00:26:00.758Z,49.25
2018-04-27T00:28:34.064Z,49.38
2018-04-27T00:31:07.277Z,50.01
2018-04-27T00:33:41.165Z,49.45
2018-04-27T00:36:20.978Z,49.29
2018-04-27T00:38:55.064Z,49.84
2018-04-27T00:41:28.656Z,49.85
2018-04-27T00:44:02.142Z,49.74
2018-04-27T00:46:36.402Z,50.65
2018-04-27T00:49:09.514Z,51.11
2018-04-27T00:51:42.931Z,51.03
2018-04-27T00:54:16.829Z,51.66
2018-04-27T00:56:50.249Z,51.61
2018-04-27T00:59:23.201Z,51.18
2018-04-27T01:01:57.876Z,51.93
2018-04-27T01:04:31.118Z,51.11
2018-04-27T01:07:04.548Z,50.83
2018-04-27T01:09:37.742Z,51.54
2018-04-27T01:12:12.085Z,52.33
2018-04-27T01:14:46.150Z,53.87
2018-04-27T01:17:19.466Z,53.04
2018-04-27T01:19:54.217Z,53.81
2018-04-27T01:22:28.702Z,54.50
2018-04-27T01:25:01.919Z,54.56
2018-04-27T01:27:35.216Z,53.73
2018-04-27T01:30:08.390Z,53.39
2018-04-27T01:32:47.296Z,53.19
2018-04-27T01:35:20.492Z,54.23
2018-04-27T01:37:54.961Z,54.28
2018-04-27T01:40:28.118Z,53.55
2018-04-27T01:43:01.273Z,53.72
2018-04-27T01:45:34.921Z,54.27
2018-04-27T01:48:08.051Z,54.72
2018-04-27T01:50:41.286Z,54.68
2018-04-27T01:53:14.911Z,54.28
2018-04-27T01:55:48.158Z,54.27
2018-04-27T01:58:22.104Z,53.90
2018-04-27T02:00:56.601Z,54.19
2018-04-27T02:03:29.916Z,54.71
2018-04-27T02:06:03.150Z,54.42
2018-04-27T02:08:37.397Z,54.06
2018-04-27T02:11:10.639Z,53.71
2018-04-27T02:13:44.599Z,53.51
2018-04-27T02:16:18.961Z,53.80
2018-04-27T02:18:53.057Z,55.35
2018-04-27T02:21:26.311Z,55.51
2018-04-27T02:23:59.472Z,55.68
2018-04-27T02:26:32.738Z,54.77
2018-04-27T02:29:06.327Z,54.55
2018-04-27T02:31:39.578Z,54.26
2018-04-27T02:34:12.843Z,54.37
2018-04-27T02:36:46.295Z,54.21
2018-04-27T02:39:19.522Z,54.24
2018-04-27T02:41:53.842Z,54.38
2018-04-27T02:44:28.247Z,55.15
2018-04-27T02:47:01.534Z,55.82
2018-04-27T02:49:34.546Z,55.78
2018-04-27T02:52:09.005Z,55.62
2018-04-27T02:54:42.227Z,55.95
2018-04-27T02:57:16.922Z,56.70
2018-04-27T02:59:50.107Z,55.88
2018-04-27T03:02:23.337Z,55.58
2018-04-27T03:04:57.142Z,56.65
2018-04-27T03:07:30.970Z,57.09
2018-04-27T03:10:04.283Z,56.77
2018-04-27T03:12:37.983Z,56.66
2018-04-27T03:15:13.735Z,57.50
2018-04-27T03:17:46.431Z,58.93
2018-04-27T03:20:19.756Z,58.84
2018-04-27T03:22:53.051Z,58.21
2018-04-27T03:25:26.281Z,58.08
2018-04-27T03:27:59.646Z,57.95
2018-04-27T03:30:32.180Z,57.81
2018-04-27T03:33:03.679Z,57.72
2018-04-27T03:35:36.940Z,57.28
2018-04-27T03:38:10.580Z,57.52
2018-04-27T03:40:44.580Z,57.83
2018-04-27T03:43:19.889Z,58.01
2018-04-27T03:45:53.893Z,58.40
2018-04-27T03:48:27.824Z,58.27
2018-04-27T03:51:01.347Z,57.96
2018-04-27T03:53:34.582Z,57.98
2018-04-27T03:56:07.803Z,58.34
2018-04-27T03:58:41.304Z,58.28
2018-04-27T04:03:27.633Z,57.93
2018-04-27T04:06:00.850Z,58.22
2018-04-27T04:08:34.095Z,58.64
2018-04-27T04:11:07.262Z,58.39
2018-04-27T04:13:41.083Z,57.14
2018-04-27T04:16:14.492Z,57.15
2018-04-27T04:18:47.874Z,57.30
2018-04-27T04:21:19.278Z,57.86
2018-04-27T04:23:52.937Z,58.31
2018-04-27T04:26:26.096Z,58.29
2018-04-27T04:29:00.122Z,57.78
2018-04-27T04:31:32.427Z,57.78
2018-04-27T04:34:05.983Z,58.72
2018-04-27T04:36:39.292Z,58.70
2018-04-27T04:39:12.645Z,58.19
2018-04-27T04:41:47.590Z,57.94
2018-04-27T04:44:21.998Z,58.51
2018-04-27T04:49:31.886Z,58.93
2018-04-27T04:52:05.223Z,59.45
2018-04-27T04:54:37.939Z,59.33
2018-04-27T04:57:10.198Z,59.99
2018-04-27T04:59:41.606Z,59.59
2018-04-27T05:02:15.127Z,59.17
2018-04-27T05:04:49.842Z,59.03
2018-04-27T05:07:25.740Z,58.60
2018-04-27T05:09:57.938Z,57.89
2018-04-27T05:12:34.069Z,57.52
2018-04-27T05:15:06.577Z,57.11
2018-04-27T05:17:39.884Z,56.97
2018-04-27T05:20:12.544Z,57.06
2018-04-27T05:22:46.021Z,56.91
2018-04-27T05:25:19.255Z,56.70
2018-04-27T05:27:52.447Z,56.24
2018-04-27T05:30:24.942Z,55.36
2018-04-27T05:33:05.119Z,55.54
2018-04-27T05:35:37.836Z,55.50
2018-04-27T05:38:09.526Z,54.66
2018-04-27T05:40:43.585Z,54.57
2018-04-27T05:43:16.351Z,54.97
2018-04-27T05:45:47.708Z,54.68
2018-04-27T05:48:20.080Z,54.10
2018-04-27T05:50:54.658Z,54.35
2018-04-27T05:53:26.414Z,53.95
2018-04-27T05:55:58.786Z,53.54
2018-04-27T05:58:31.555Z,52.70
2018-04-27T06:01:03.069Z,52.47
2018-04-27T06:03:43.366Z,52.85
2018-04-27T06:06:15.179Z,52.44
2018-04-27T06:08:46.584Z,52.36
2018-04-27T06:11:18.074Z,51.37
2018-04-27T06:13:50.311Z,51.20
2018-04-27T06:16:21.738Z,50.22
2018-04-27T06:18:54.477Z,51.63
2018-04-27T06:21:25.780Z,51.15
2018-04-27T06:23:58.064Z,51.39
2018-04-27T06:26:29.459Z,51.36
2018-04-27T06:29:00.015Z,50.40
2018-04-27T06:31:35.357Z,49.79
2018-04-27T06:34:14.018Z,49.12
2018-04-27T06:36:46.550Z,48.53
2018-04-27T06:39:18.802Z,48.83
2018-04-27T06:41:50.343Z,48.62
2018-04-27T06:44:22.151Z,48.25
2018-04-27T06:46:54.295Z,47.61
2018-04-27T06:49:25.725Z,47.75
2018-04-27T06:51:57.114Z,47.57
2018-04-27T06:54:29.519Z,47.12
2018-04-27T06:57:00.462Z,47.12
2018-04-27T06:59:31.974Z,47.18
2018-04-27T07:02:03.719Z,46.89
2018-04-27T07:04:37.504Z,47.00
2018-04-27T07:07:09.734Z,47.13
2018-04-27T07:09:40.243Z,45.68
2018-04-27T07:12:12.971Z,46.09
2018-04-27T07:14:43.538Z,45.57
2018-04-27T07:17:15.036Z,44.84
2018-04-27T07:19:45.924Z,44.79
2018-04-27T07:22:16.863Z,44.27
2018-04-27T07:24:47.186Z,44.23
2018-04-27T07:27:18.606Z,43.87
2018-04-27T07:29:51.123Z,44.83
2018-04-27T07:32:21.996Z,43.94
2018-04-27T07:34:53.446Z,44.22
2018-04-27T07:37:25.085Z,45.02
2018-04-27T07:39:57.833Z,45.57
2018-04-27T07:42:29.265Z,44.17
2018-04-27T07:45:04.942Z,44.05
2018-04-27T07:47:37.466Z,43.30
2018-04-27T07:50:09.701Z,43.15
2018-04-27T07:52:41.191Z,43.01
2018-04-27T07:55:12.595Z,42.54
2018-04-27T07:57:44.315Z,42.89
2018-04-27T08:00:19.228Z,42.09
2018-04-27T08:02:53.290Z,40.92
2018-04-27T08:05:25.642Z,40.45
2018-04-27T08:07:57.180Z,40.50
2018-04-27T08:10:28.770Z,41.07
2018-04-27T08:13:00.376Z,41.78
2018-04-27T08:15:31.883Z,40.95
2018-04-27T08:18:04.174Z,40.27
2018-04-27T08:20:36.913Z,40.15
2018-04-27T08:23:08.464Z,39.67
2018-04-27T08:25:40.765Z,39.66
2018-04-27T08:28:12.739Z,39.09
2018-04-27T08:30:44.934Z,39.19
2018-04-27T08:33:16.865Z,38.74
2018-04-27T08:35:48.376Z,37.84
2018-04-27T08:38:19.843Z,38.34
2018-04-27T08:40:51.318Z,38.69
2018-04-27T08:43:22.734Z,37.62
2018-04-27T08:45:55.605Z,36.93
2018-04-27T08:48:26.922Z,36.45
2018-04-27T08:50:58.295Z,36.03
2018-04-27T08:53:30.133Z,37.16
2018-04-27T08:56:01.560Z,37.15
2018-04-27T08:58:33.014Z,36.39
2018-04-27T09:01:04.396Z,36.61
2018-04-27T09:03:36.688Z,35.64
2018-04-27T09:06:08.868Z,35.92
2018-04-27T09:08:41.056Z,33.49
2018-04-27T09:11:14.144Z,33.84
2018-04-27T09:13:46.855Z,32.31
2018-04-27T09:16:19.288Z,32.64
2018-04-27T09:18:51.039Z,31.64
2018-04-27T09:21:23.667Z,31.07
2018-04-27T09:23:56.263Z,31.26
2018-04-27T09:26:29.251Z,31.61
2018-04-27T09:29:00.909Z,32.61
2018-04-27T09:31:34.734Z,32.10
2018-04-27T09:34:06.286Z,31.80
2018-04-27T09:36:39.494Z,31.94
2018-04-27T09:39:13.308Z,31.63
2018-04-27T09:41:45.409Z,31.45
2018-04-27T09:44:18.282Z,31.00
2018-04-27T09:46:50.370Z,29.54
2018-04-27T09:49:24.107Z,28.57
2018-04-27T09:51:58.278Z,28.02
2018-04-27T09:54:33.213Z,27.05
2018-04-27T09:57:06.491Z,26.39
2018-04-27T09:59:42.142Z,26.43
2018-04-27T10:02:16.183Z,26.01
2018-04-27T10:04:49.743Z,25.29
2018-04-27T10:07:23.019Z,25.11
2018-04-27T10:09:56.605Z,25.45
2018-04-27T10:12:31.348Z,25.64
2018-04-27T10:15:06.851Z,25.56
2018-04-27T10:17:40.742Z,24.85
2018-04-27T10:20:13.954Z,25.26
2018-04-27T10:22:48.023Z,24.35
2018-04-27T10:25:20.674Z,24.06
2018-04-27T10:27:53.703Z,24.07
2018-04-27T10:30:27.826Z,23.45
2018-04-27T10:33:02.082Z,23.54
2018-04-27T10:35:37.291Z,23.35
2018-04-27T10:38:10.526Z,23.63
2018-04-27T10:40:43.795Z,23.68
2018-04-27T10:43:18.251Z,23.25
2018-04-27T10:45:51.482Z,23.89
2018-04-27T10:48:24.839Z,23.95
2018-04-27T10:50:58.092Z,23.65
2018-04-27T10:53:32.791Z,22.71
2018-04-27T10:56:06.286Z,22.61
2018-04-27T10:58:46.822Z,22.66
2018-04-27T11:01:20.041Z,22.08
2018-04-27T11:03:53.356Z,22.12
2018-04-27T11:06:28.843Z,22.92
2018-04-27T11:09:02.108Z,23.05
2018-04-27T11:11:35.207Z,23.12
2018-04-27T11:14:08.866Z,22.92
2018-04-27T11:16:42.144Z,22.72
2018-04-27T11:19:16.519Z,22.87
2018-04-27T11:21:51.155Z,22.63
2018-04-27T11:24:25.137Z,22.68
2018-04-27T11:26:58.567Z,21.91
2018-04-27T11:29:32.018Z,22.03
2018-04-27T11:32:05.362Z,22.64
2018-04-27T11:34:38.947Z,22.47
2018-04-27T11:37:12.218Z,22.50
2018-04-27T11:39:46.486Z,22.39
2018-04-27T11:42:21.670Z,22.20
2018-04-27T11:44:55.624Z,23.15
2018-04-27T11:47:29.004Z,23.29
2018-04-27T11:50:02.300Z,23.31
2018-04-27T11:52:35.796Z,22.60
2018-04-27T11:55:09.705Z,21.78
2018-04-27T11:57:44.921Z,22.03
2018-04-27T12:00:18.589Z,21.69
2018-04-27T12:02:53.590Z,21.92
2018-04-27T12:05:27.008Z,21.61
2018-04-27T12:08:01.617Z,21.24
2018-04-27T12:10:35.307Z,21.44
2018-04-27T12:13:10.561Z,21.35
2018-04-27T12:15:45.376Z,20.92
2018-04-27T12:18:19.158Z,20.17
2018-04-27T12:20:52.488Z,20.49
2018-04-27T12:23:25.934Z,20.37
2018-04-27T12:25:59.255Z,20.22
2018-04-27T12:28:32.800Z,20.68
2018-04-27T12:31:06.076Z,20.96
2018-04-27T12:33:39.346Z,20.65
2018-04-27T12:36:13.116Z,20.11
2018-04-27T12:38:46.698Z,19.86
2018-04-27T12:41:20.567Z,20.19
2018-04-27T12:43:55.139Z,20.73
2018-04-27T12:46:28.698Z,20.54
2018-04-27T12:49:01.927Z,20.38
2018-04-27T12:51:35.251Z,20.83
2018-04-27T12:54:08.574Z,20.33
2018-04-27T12:56:41.875Z,20.21
2018-04-27T12:59:15.483Z,19.91
2018-04-27T13:01:48.734Z,20.43
2018-04-27T13:04:22.023Z,21.01
2018-04-27T13:06:55.532Z,22.00
2018-04-27T13:09:30.494Z,21.46
2018-04-27T13:12:04.719Z,21.13
2018-04-27T13:14:38.116Z,20.50
2018-04-27T13:17:11.413Z,20.59
2018-04-27T13:19:44.675Z,20.79
2018-04-27T13:22:17.951Z,20.83
2018-04-27T13:24:51.508Z,20.98
2018-04-27T13:27:24.762Z,20.76
2018-04-27T13:29:57.960Z,20.70
2018-04-27T13:32:34.730Z,20.85
2018-04-27T13:35:08.766Z,20.75
2018-04-27T13:37:43.270Z,21.23
2018-04-27T13:40:16.543Z,21.55
2018-04-27T13:42:49.827Z,21.50
2018-04-27T13:45:24.452Z,21.44
2018-04-27T13:47:58.693Z,22.02
2018-04-27T13:50:33.547Z,21.85
2018-04-27T13:53:08.124Z,21.98
2018-04-27T13:55:41.479Z,22.00
2018-04-27T13:58:14.892Z,21.53
2018-04-27T14:00:50.210Z,21.16
2018-04-27T14:03:23.618Z,21.13
2018-04-27T14:05:56.984Z,21.94
2018-04-27T14:08:30.181Z,21.91
2018-04-27T14:11:03.427Z,21.26
2018-04-27T14:13:38.978Z,21.10
2018-04-27T14:16:12.267Z,21.11
2018-04-27T14:18:46.831Z,20.90
2018-04-27T14:21:20.115Z,21.19
2018-04-27T14:23:53.429Z,21.55
2018-04-27T14:26:27.007Z,21.92
2018-04-27T14:29:00.423Z,21.52
2018-04-27T14:31:34.884Z,21.71
2018-04-27T14:34:08.450Z,21.66
2018-04-27T14:36:41.649Z,21.80
2018-04-27T14:39:15.298Z,22.06
2018-04-27T14:41:48.513Z,21.60
2018-04-27T14:44:21.743Z,21.09
2018-04-27T14:46:55.266Z,21.12
2018-04-27T14:49:28.591Z,20.51
2018-04-27T14:52:01.923Z,20.37
2018-04-27T14:54:36.931Z,20.10
2018-04-27T14:57:10.551Z,19.86
2018-04-27T14:59:46.165Z,19.79
2018-04-27T15:02:19.465Z,19.38
2018-04-27T15:04:52.808Z,19.55
2018-04-27T15:07:27.386Z,19.25
2018-04-27T15:10:00.595Z,19.37
2018-04-27T15:12:34.486Z,19.14
2018-04-27T15:15:09.355Z,19.34
2018-04-27T15:17:43.719Z,19.43
2018-04-27T15:20:18.610Z,19.33
2018-04-27T15:22:51.976Z,18.90
2018-04-27T15:25:25.278Z,19.07
2018-04-27T15:27:58.869Z,18.88
2018-04-27T15:30:34.186Z,19.33
2018-04-27T15:33:07.672Z,19.11
2018-04-27T15:35:41.675Z,19.64
2018-04-27T15:38:15.726Z,19.62
2018-04-27T15:40:50.902Z,20.01
2018-04-27T15:43:24.476Z,19.81
2018-04-27T15:45:59.294Z,19.69
2018-04-27T15:48:32.911Z,19.56
2018-04-27T15:51:06.926Z,19.13
2018-04-27T15:53:40.403Z,18.76
2018-04-27T15:56:20.256Z,18.35
2018-04-27T15:58:54.612Z,18.31
2018-04-27T16:01:28.415Z,19.53
2018-04-27T16:04:03.030Z,19.55
2018-04-27T16:06:38.351Z,19.27
2018-04-27T16:09:11.748Z,19.33
2018-04-27T16:11:46.129Z,19.31
2018-04-27T16:14:19.402Z,19.39
2018-04-27T16:16:52.796Z,19.82
2018-04-27T16:19:26.379Z,20.11
2018-04-27T16:21:59.677Z,20.21
2018-04-27T16:24:33.232Z,20.22
2018-04-27T16:27:06.470Z,20.56
2018-04-27T16:29:40.100Z,21.07
2018-04-27T16:32:13.350Z,21.21
2018-04-27T16:34:46.643Z,21.13
2018-04-27T16:37:20.256Z,20.74
2018-04-27T16:39:53.563Z,20.41
2018-04-27T16:42:26.791Z,19.87
2018-04-27T16:45:00.467Z,19.32
2018-04-27T16:47:33.703Z,18.94
2018-04-27T16:50:07.536Z,18.45
2018-04-27T16:52:41.062Z,18.40
2018-04-27T16:55:14.342Z,18.47
2018-04-27T16:57:47.548Z,18.23
2018-04-27T17:00:22.592Z,18.42
2018-04-27T17:03:02.025Z,18.92
2018-04-27T17:05:36.558Z,18.94
2018-04-27T17:08:09.735Z,18.69
2018-04-27T17:10:43.139Z,19.33
2018-04-27T17:13:16.315Z,20.13
2018-04-27T17:15:49.618Z,20.60
2018-04-27T17:18:23.246Z,21.16
2018-04-27T17:20:56.460Z,21.88
2018-04-27T17:23:29.716Z,22.33
2018-04-27T17:26:04.402Z,22.91
2018-04-27T17:28:37.489Z,23.26
2018-04-27T17:31:10.938Z,23.26
2018-04-27T17:33:44.094Z,23.72
2018-04-27T17:36:17.662Z,23.81
2018-04-27T17:38:57.007Z,23.95
2018-04-27T17:41:30.243Z,24.19
2018-04-27T17:44:02.556Z,24.36
2018-04-27T17:46:38.124Z,24.71
2018-04-27T17:49:11.798Z,24.56
2018-04-27T17:51:45.457Z,24.83
2018-04-27T17:54:20.728Z,24.93
2018-04-27T17:56:54.886Z,25.17
2018-04-27T17:59:28.270Z,25.19
2018-04-27T18:02:01.794Z,25.43
2018-04-27T18:04:35.251Z,25.60
2018-04-27T18:07:08.718Z,25.39
2018-04-27T18:09:42.056Z,25.42
2018-04-27T18:12:15.417Z,25.57
2018-04-27T18:14:49.651Z,25.88
2018-04-27T18:17:23.083Z,25.94
2018-04-27T18:19:56.382Z,26.00
2018-04-27T18:22:29.695Z,26.18
2018-04-27T18:25:02.862Z,26.33
2018-04-27T18:27:37.673Z,26.75
2018-04-27T18:30:09.224Z,27.11
2018-04-27T18:32:40.687Z,27.62
2018-04-27T18:35:13.639Z,28.12
2018-04-27T18:37:46.629Z,28.35
2018-04-27T18:40:19.924Z,28.36
2018-04-27T18:42:52.508Z,28.49
2018-04-27T18:45:24.796Z,28.39
2018-04-27T18:47:59.050Z,28.50
2018-04-27T18:50:31.435Z,28.86
2018-04-27T18:53:02.983Z,29.01
2018-04-27T18:55:37.798Z,28.81
2018-04-27T18:58:11.280Z,29.08
2018-04-27T19:00:44.928Z,28.95
2018-04-27T19:03:19.049Z,29.31
2018-04-27T19:05:52.642Z,29.81
2018-04-27T19:08:26.162Z,30.04
2018-04-27T19:10:59.873Z,30.06
2018-04-27T19:13:33.089Z,30.26
2018-04-27T19:16:07.850Z,30.92
2018-04-27T19:18:39.020Z,31.26
2018-04-27T19:21:13.525Z,31.77
2018-04-27T19:23:46.112Z,31.91
2018-04-27T19:26:20.222Z,32.23
2018-04-27T19:28:52.111Z,32.54
2018-04-27T19:31:23.560Z,32.84
2018-04-27T19:33:54.976Z,33.36
2018-04-27T19:36:27.202Z,33.62
2018-04-27T19:38:59.555Z,34.08
2018-04-27T19:41:30.266Z,34.31
2018-04-27T19:44:03.477Z,34.80
2018-04-27T19:46:35.107Z,35.71
2018-04-27T19:49:06.903Z,36.36
2018-04-27T19:51:39.379Z,36.89
2018-04-27T19:54:11.067Z,36.98
2018-04-27T19:56:43.627Z,37.14
2018-04-27T19:59:14.174Z,37.04
2018-04-27T20:01:45.664Z,37.02
2018-04-27T20:04:17.905Z,36.96
2018-04-27T20:06:50.117Z,36.97
2018-04-27T20:09:21.921Z,37.08
2018-04-27T20:11:54.323Z,36.93
2018-04-27T20:14:30.274Z,36.96
2018-04-27T20:17:02.322Z,36.73
2018-04-27T20:19:34.082Z,36.96
2018-04-27T20:22:09.663Z,36.71
2018-04-27T20:24:41.978Z,36.70
2018-04-27T20:27:13.519Z,36.50
2018-04-27T20:29:44.948Z,36.64
2018-04-27T20:32:16.889Z,36.57
2018-04-27T20:34:51.016Z,36.33
2018-04-27T20:37:22.943Z,36.12
2018-04-27T20:39:54.399Z,36.33
2018-04-27T20:42:28.615Z,36.54
2018-04-27T20:45:00.231Z,37.81
2018-04-27T20:47:34.601Z,38.68
2018-04-27T20:50:08.060Z,38.85
2018-04-27T20:52:39.892Z,39.13
2018-04-27T20:55:11.407Z,39.10
2018-04-27T20:57:44.217Z,40.11
2018-04-27T21:00:17.756Z,40.83
2018-04-27T21:02:49.176Z,40.35
2018-04-27T21:05:21.054Z,41.71
2018-04-27T21:07:53.309Z,41.34
2018-04-27T21:10:25.254Z,41.97
2018-04-27T21:12:56.376Z,41.92
2018-04-27T21:15:29.431Z,41.54
2018-04-27T21:18:02.154Z,42.21
2018-04-27T21:20:33.771Z,42.34
2018-04-27T21:23:06.322Z,42.59
2018-04-27T21:25:38.719Z,42.50
2018-04-27T21:28:10.770Z,43.62
2018-04-27T21:30:42.506Z,44.02
2018-04-27T21:33:14.020Z,44.35
2018-04-27T21:35:46.821Z,43.45
2018-04-27T21:38:19.039Z,42.46
2018-04-27T21:40:50.335Z,42.21
2018-04-27T21:43:21.994Z,43.20
2018-04-27T21:45:52.570Z,44.10
2018-04-27T21:48:25.084Z,44.29
2018-04-27T21:50:56.504Z,44.17
2018-04-27T21:53:28.048Z,43.74
2018-04-27T21:55:59.627Z,43.64
2018-04-27T21:58:31.013Z,43.49
2018-04-27T22:01:03.144Z,43.22
2018-04-27T22:03:35.985Z,43.29
2018-04-27T22:06:08.352Z,43.11
2018-04-27T22:08:39.598Z,43.18
2018-04-27T22:11:13.293Z,43.04
2018-04-27T22:13:44.541Z,42.91
2018-04-27T22:16:16.869Z,42.98
2018-04-27T22:18:54.775Z,43.09
2018-04-27T22:21:26.017Z,43.27
2018-04-27T22:23:59.952Z,43.50
2018-04-27T22:26:34.445Z,43.36
2018-04-27T22:29:05.939Z,43.75
2018-04-27T22:31:38.482Z,43.84
2018-04-27T22:34:09.859Z,43.97
2018-04-27T22:36:41.246Z,44.45
2018-04-27T22:39:14.060Z,44.51
2018-04-27T22:41:45.497Z,44.84
2018-04-27T22:44:17.070Z,44.68
2018-04-27T22:46:55.045Z,44.74
2018-04-27T22:49:26.592Z,44.63
2018-04-27T22:51:58.790Z,44.56
2018-04-27T22:54:33.071Z,44.43
2018-04-27T22:57:09.275Z,44.54
2018-04-27T22:59:41.008Z,44.78
2018-04-27T23:02:13.225Z,44.91
2018-04-27T23:04:44.888Z,45.21
2018-04-27T23:07:18.705Z,45.54
2018-04-27T23:09:50.234Z,45.82
2018-04-27T23:12:22.160Z,45.95
2018-04-27T23:14:54.636Z,46.18
2018-04-27T23:17:26.521Z,46.77
2018-04-27T23:19:58.152Z,46.84
2018-04-27T23:22:34.798Z,46.79
2018-04-27T23:25:07.520Z,46.51
2018-04-27T23:27:39.896Z,46.49
2018-04-27T23:30:12.877Z,46.90
2018-04-27T23:32:44.070Z,47.52
2018-04-27T23:35:15.767Z,47.77
2018-04-27T23:37:49.779Z,48.10
2018-04-27T23:40:22.177Z,48.32
2018-04-27T23:42:53.686Z,48.33
2018-04-27T23:45:26.300Z,49.02
2018-04-27T23:47:57.610Z,48.41
2018-04-27T23:50:28.956Z,48.59
2018-04-27T23:53:00.730Z,48.64
2018-04-27T23:55:33.541Z,48.75
2018-04-27T23:58:06.211Z,48.78
